sensor_id;sensor_type;location;lat;lon;timestamp;P1;durP1;ratioP1;P2;durP2;ratioP2
80840;SDS011;70254;49.200;-122.910;2023-06-10T00:01:06;5.43;;;3.63;;
80840;SDS011;70254;49.200;-122.910;2023-06-10T00:03:54;5.68;;;3.17;;
80840;SDS011;70254;49.200;-122.910;2023-06-10T00:06:33;7.72;;;4.47;;
80840;SDS011;70254;49.200;-122.910;2023-06-10T00:09:05;5.55;;;3.47;;
80840;SDS011;70254;49.200;-122.910;2023-06-10T00:11:48;5.80;;;3.90;;
80840;SDS011;70254;49.200;-122.910;2023-06-10T00:14:18;7.75;;;4.15;;
80840;SDS011;70254;49.200;-122.910;2023-06-10T00:16:56;5.28;;;4.05;;
80840;SDS011;70254;49.200;-122.910;2023-06-10T00:19:26;5.35;;;3.55;;
80840;SDS011;70254;49.200;-122.910;2023-06-10T00:21:56;5.13;;;3.63;;
80840;SDS011;70254;49.200;-122.910;2023-06-10T00:24:27;5.72;;;3.53;;
80840;SDS011;70254;49.200;-122.910;2023-06-10T00:26:58;6.35;;;4.47;;
80840;SDS011;70254;49.200;-122.910;2023-06-10T00:29:35;7.47;;;3.97;;
80840;SDS011;70254;49.200;-122.910;2023-06-10T00:32:07;5.47;;;3.78;;
80840;SDS011;70254;49.200;-122.910;2023-06-10T00:38:36;6.18;;;3.72;;
80840;SDS011;70254;49.200;-122.910;2023-06-10T00:44:04;4.10;;;3.70;;
80840;SDS011;70254;49.200;-122.910;2023-06-10T00:46:39;6.22;;;3.33;;
80840;SDS011;70254;49.200;-122.910;2023-06-10T00:52:10;6.55;;;3.72;;
80840;SDS011;70254;49.200;-122.910;2023-06-10T00:54:58;5.70;;;4.43;;
80840;SDS011;70254;49.200;-122.910;2023-06-10T00:57:46;7.13;;;4.57;;
80840;SDS011;70254;49.200;-122.910;2023-06-10T01:00:17;6.28;;;3.97;;
80840;SDS011;70254;49.200;-122.910;2023-06-10T01:03:05;8.07;;;4.90;;
80840;SDS011;70254;49.200;-122.910;2023-06-10T01:09:21;8.75;;;4.97;;
80840;SDS011;70254;49.200;-122.910;2023-06-10T01:15:35;8.07;;;4.65;;
80840;SDS011;70254;49.200;-122.910;2023-06-10T01:33:00;10.48;;;4.95;;
80840;SDS011;70254;49.200;-122.910;2023-06-10T01:35:51;7.65;;;5.05;;
80840;SDS011;70254;49.200;-122.910;2023-06-10T01:39:20;10.10;;;5.40;;
80840;SDS011;70254;49.200;-122.910;2023-06-10T01:45:33;8.55;;;5.65;;
80840;SDS011;70254;49.200;-122.910;2023-06-10T01:48:38;7.95;;;6.82;;
80840;SDS011;70254;49.200;-122.910;2023-06-10T01:51:18;12.55;;;6.00;;
80840;SDS011;70254;49.200;-122.910;2023-06-10T01:54:27;9.70;;;6.20;;
80840;SDS011;70254;49.200;-122.910;2023-06-10T02:00:21;11.85;;;5.85;;
80840;SDS011;70254;49.200;-122.910;2023-06-10T02:03:10;7.35;;;5.30;;
80840;SDS011;70254;49.200;-122.910;2023-06-10T02:05:58;10.65;;;5.07;;
80840;SDS011;70254;49.200;-122.910;2023-06-10T02:08:51;9.13;;;5.53;;
80840;SDS011;70254;49.200;-122.910;2023-06-10T02:11:24;9.05;;;5.80;;
80840;SDS011;70254;49.200;-122.910;2023-06-10T02:13:57;8.02;;;5.63;;
80840;SDS011;70254;49.200;-122.910;2023-06-10T02:38:19;9.77;;;5.82;;
80840;SDS011;70254;49.200;-122.910;2023-06-10T03:20:04;7.72;;;5.75;;
80840;SDS011;70254;49.200;-122.910;2023-06-10T03:22:36;6.68;;;5.32;;
80840;SDS011;70254;49.200;-122.910;2023-06-10T03:25:04;8.40;;;5.70;;
80840;SDS011;70254;49.200;-122.910;2023-06-10T03:27:42;9.57;;;5.55;;
80840;SDS011;70254;49.200;-122.910;2023-06-10T03:30:16;7.63;;;5.90;;
80840;SDS011;70254;49.200;-122.910;2023-06-10T03:58:11;10.45;;;5.47;;
80840;SDS011;70254;49.200;-122.910;2023-06-10T04:00:40;7.93;;;5.60;;
80840;SDS011;70254;49.200;-122.910;2023-06-10T04:03:16;9.18;;;6.00;;
80840;SDS011;70254;49.200;-122.910;2023-06-10T04:05:46;11.88;;;6.22;;
80840;SDS011;70254;49.200;-122.910;2023-06-10T04:08:34;9.68;;;5.53;;
80840;SDS011;70254;49.200;-122.910;2023-06-10T04:11:01;8.32;;;5.30;;
80840;SDS011;70254;49.200;-122.910;2023-06-10T04:13:30;8.65;;;5.22;;
80840;SDS011;70254;49.200;-122.910;2023-06-10T04:15:57;8.98;;;6.03;;
80840;SDS011;70254;49.200;-122.910;2023-06-10T04:18:38;8.88;;;5.28;;
80840;SDS011;70254;49.200;-122.910;2023-06-10T04:21:07;7.25;;;5.78;;
80840;SDS011;70254;49.200;-122.910;2023-06-10T04:23:36;9.23;;;5.50;;
80840;SDS011;70254;49.200;-122.910;2023-06-10T04:26:27;9.02;;;5.75;;
80840;SDS011;70254;49.200;-122.910;2023-06-10T04:28:57;8.52;;;5.78;;
80840;SDS011;70254;49.200;-122.910;2023-06-10T04:31:27;8.02;;;5.90;;
80840;SDS011;70254;49.200;-122.910;2023-06-10T04:33:55;7.60;;;5.22;;
80840;SDS011;70254;49.200;-122.910;2023-06-10T04:36:26;8.90;;;5.95;;
80840;SDS011;70254;49.200;-122.910;2023-06-10T04:38:56;8.38;;;5.68;;
80840;SDS011;70254;49.200;-122.910;2023-06-10T04:41:30;7.80;;;5.28;;
80840;SDS011;70254;49.200;-122.910;2023-06-10T04:44:00;7.32;;;5.18;;
80840;SDS011;70254;49.200;-122.910;2023-06-10T04:46:27;7.50;;;5.30;;
80840;SDS011;70254;49.200;-122.910;2023-06-10T04:48:56;7.00;;;5.95;;
80840;SDS011;70254;49.200;-122.910;2023-06-10T05:35:22;8.80;;;4.28;;
80840;SDS011;70254;49.200;-122.910;2023-06-10T05:37:51;6.00;;;3.65;;
80840;SDS011;70254;49.200;-122.910;2023-06-10T05:40:21;5.38;;;3.80;;
80840;SDS011;70254;49.200;-122.910;2023-06-10T05:42:59;6.50;;;4.35;;
80840;SDS011;70254;49.200;-122.910;2023-06-10T05:45:32;8.55;;;4.30;;
80840;SDS011;70254;49.200;-122.910;2023-06-10T05:48:07;7.25;;;5.15;;
80840;SDS011;70254;49.200;-122.910;2023-06-10T05:50:40;8.73;;;4.85;;
80840;SDS011;70254;49.200;-122.910;2023-06-10T05:53:10;8.30;;;4.93;;
80840;SDS011;70254;49.200;-122.910;2023-06-10T05:55:44;9.48;;;5.05;;
80840;SDS011;70254;49.200;-122.910;2023-06-10T05:58:15;5.38;;;3.72;;
80840;SDS011;70254;49.200;-122.910;2023-06-10T06:00:45;6.07;;;3.50;;
80840;SDS011;70254;49.200;-122.910;2023-06-10T06:03:12;5.28;;;3.78;;
80840;SDS011;70254;49.200;-122.910;2023-06-10T13:33:42;4.40;;;3.15;;
80840;SDS011;70254;49.200;-122.910;2023-06-10T13:36:18;3.58;;;2.55;;
80840;SDS011;70254;49.200;-122.910;2023-06-10T13:38:45;5.60;;;2.85;;
80840;SDS011;70254;49.200;-122.910;2023-06-10T13:55:09;6.32;;;3.95;;
80840;SDS011;70254;49.200;-122.910;2023-06-10T13:57:39;5.10;;;3.63;;
80840;SDS011;70254;49.200;-122.910;2023-06-10T14:00:13;5.25;;;3.78;;
80840;SDS011;70254;49.200;-122.910;2023-06-10T14:35:34;8.80;;;4.55;;
80840;SDS011;70254;49.200;-122.910;2023-06-10T14:38:20;6.35;;;4.03;;
80840;SDS011;70254;49.200;-122.910;2023-06-10T14:40:48;7.00;;;4.63;;
80840;SDS011;70254;49.200;-122.910;2023-06-10T14:43:18;6.47;;;4.10;;
80840;SDS011;70254;49.200;-122.910;2023-06-10T14:45:50;8.48;;;4.63;;
80840;SDS011;70254;49.200;-122.910;2023-06-10T14:48:21;5.28;;;3.88;;
80840;SDS011;70254;49.200;-122.910;2023-06-10T14:50:47;5.78;;;3.97;;
80840;SDS011;70254;49.200;-122.910;2023-06-10T14:53:25;5.18;;;3.50;;
80840;SDS011;70254;49.200;-122.910;2023-06-10T14:56:03;6.38;;;3.80;;
80840;SDS011;70254;49.200;-122.910;2023-06-10T14:58:40;15.80;;;7.60;;
80840;SDS011;70254;49.200;-122.910;2023-06-10T15:01:13;5.30;;;3.40;;
80840;SDS011;70254;49.200;-122.910;2023-06-10T15:03:40;4.55;;;3.25;;
80840;SDS011;70254;49.200;-122.910;2023-06-10T15:06:14;3.95;;;2.67;;
80840;SDS011;70254;49.200;-122.910;2023-06-10T15:09:00;4.00;;;2.70;;
80840;SDS011;70254;49.200;-122.910;2023-06-10T15:11:50;3.33;;;2.80;;
80840;SDS011;70254;49.200;-122.910;2023-06-10T15:14:20;3.33;;;2.47;;
80840;SDS011;70254;49.200;-122.910;2023-06-10T15:16:47;4.13;;;2.83;;
80840;SDS011;70254;49.200;-122.910;2023-06-10T15:19:20;3.30;;;2.20;;
80840;SDS011;70254;49.200;-122.910;2023-06-10T15:22:05;4.60;;;2.13;;
80840;SDS011;70254;49.200;-122.910;2023-06-10T15:24:39;2.60;;;1.80;;
80840;SDS011;70254;49.200;-122.910;2023-06-10T15:27:14;2.50;;;1.90;;
80840;SDS011;70254;49.200;-122.910;2023-06-10T16:10:16;2.50;;;1.88;;
80840;SDS011;70254;49.200;-122.910;2023-06-10T16:12:49;2.90;;;1.70;;
80840;SDS011;70254;49.200;-122.910;2023-06-10T16:15:23;4.88;;;2.17;;
80840;SDS011;70254;49.200;-122.910;2023-06-10T16:17:52;2.78;;;2.00;;
80840;SDS011;70254;49.200;-122.910;2023-06-10T16:20:29;3.40;;;2.17;;
80840;SDS011;70254;49.200;-122.910;2023-06-10T16:25:48;3.22;;;2.10;;
80840;SDS011;70254;49.200;-122.910;2023-06-10T16:28:32;3.20;;;2.10;;
80840;SDS011;70254;49.200;-122.910;2023-06-10T16:30:59;3.60;;;2.20;;
80840;SDS011;70254;49.200;-122.910;2023-06-10T16:33:35;3.28;;;2.10;;
80840;SDS011;70254;49.200;-122.910;2023-06-10T16:36:13;3.22;;;2.10;;
80840;SDS011;70254;49.200;-122.910;2023-06-10T16:38:40;2.80;;;2.10;;
80840;SDS011;70254;49.200;-122.910;2023-06-10T16:41:13;2.55;;;1.80;;
80840;SDS011;70254;49.200;-122.910;2023-06-10T16:43:43;2.45;;;1.83;;
80840;SDS011;70254;49.200;-122.910;2023-06-10T16:46:10;4.03;;;1.67;;
80840;SDS011;70254;49.200;-122.910;2023-06-10T16:48:49;7.25;;;2.80;;
80840;SDS011;70254;49.200;-122.910;2023-06-10T17:12:46;2.33;;;1.60;;
80840;SDS011;70254;49.200;-122.910;2023-06-10T17:15:44;2.75;;;1.98;;
80840;SDS011;70254;49.200;-122.910;2023-06-10T17:21:45;2.20;;;1.60;;
80840;SDS011;70254;49.200;-122.910;2023-06-10T17:24:54;2.13;;;1.50;;
80840;SDS011;70254;49.200;-122.910;2023-06-10T17:27:30;2.53;;;1.60;;
80840;SDS011;70254;49.200;-122.910;2023-06-10T17:30:03;2.67;;;1.65;;
80840;SDS011;70254;49.200;-122.910;2023-06-10T17:32:50;2.28;;;1.73;;
80840;SDS011;70254;49.200;-122.910;2023-06-10T17:35:26;2.47;;;1.75;;
80840;SDS011;70254;49.200;-122.910;2023-06-10T17:38:02;2.80;;;1.60;;
80840;SDS011;70254;49.200;-122.910;2023-06-10T18:17:34;1.75;;;1.50;;
80840;SDS011;70254;49.200;-122.910;2023-06-10T18:20:13;2.30;;;1.60;;
80840;SDS011;70254;49.200;-122.910;2023-06-10T18:27:01;1.52;;;1.20;;
80840;SDS011;70254;49.200;-122.910;2023-06-10T18:33:16;2.25;;;1.50;;
80840;SDS011;70254;49.200;-122.910;2023-06-10T19:13:03;35.25;;;22.65;;
